Stuart, Nebraska
Current Conditions -  °F | °C
As of 5:15 AM on Friday 28 Nov 2014 (Local Time) from KONL Reporting Station
Clear Clear  
Wind Chill: 18°   Ceiling: Unl
Heat Index: 27°   Visibility: 10mi
Dew Point: 22°   Wind: 8mph
Humidity: 84%   Direction: 200°SSW
Pressure: 29.8"   Gusts: NA
Location:  42.6°N, 99.14°W
Report Text: KONL 281115Z AUTO 20007KT 10SM CLR M03/M05 A2980 RMK AO2 T10301053
Loading
Personal Weather Stations






























Interactive Weather Map New forecast layout! Learn more

10-Day Weather Forecast

Advertisements
Track Severe Weather on mobile